Time;durP1;ratioP1;P1;durP2;ratioP2;P2;SDS_P1;SDS_P2;PMS_P1;PMS_P2;Temp;Humidity;BMP_temperature;BMP_pressure;BME280_temperature;BME280_humidity;BME280_pressure;Samples;Min_cycle;Max_cycle;Signal;HPM_P1;HPM_P2
2022/10/24 00:01:20;;;;;;;0.30;0.30;;;16.40;1.00;;;;;;5017163;28;20191;-63
2022/10/24 00:03:48;;;;;;;0.22;0.22;;;16.40;99.90;;;;;;5023170;28;20211;-62
2022/10/24 00:06:16;;;;;;;0.30;0.30;;;16.40;99.90;;;;;;5016932;28;20667;-63
2022/10/24 00:08:43;;;;;;;0.30;0.30;;;16.40;99.90;;;;;;5033176;28;20322;-64
2022/10/24 00:11:20;;;;;;;0.30;0.30;;;16.30;99.90;;;;;;5016348;28;20210;-62
2022/10/24 00:13:47;;;;;;;0.30;0.30;;;16.20;99.90;;;;;;5036313;28;20219;-61
2022/10/24 00:16:14;;;;;;;0.25;0.25;;;16.10;1.00;;;;;;5027575;28;20881;-64
2022/10/24 00:18:41;;;;;;;0.30;0.30;;;16.20;99.90;;;;;;5020075;28;20698;-64
2022/10/24 00:21:10;;;;;;;0.30;0.30;;;16.10;1.00;;;;;;5038638;28;20196;-62
2022/10/24 00:23:37;;;;;;;0.30;0.30;;;16.10;99.90;;;;;;5022113;28;20199;-62
2022/10/24 00:26:06;;;;;;;0.17;0.17;;;16.10;99.90;;;;;;5031110;28;20192;-62
2022/10/24 00:28:35;;;;;;;0.20;0.20;;;16.10;99.90;;;;;;5023123;28;20199;-62
2022/10/24 00:31:04;;;;;;;0.20;0.20;;;16.20;99.90;;;;;;5040537;28;20192;-62
2022/10/24 00:33:31;;;;;;;0.20;0.20;;;16.30;99.90;;;;;;5024069;28;20192;-62
2022/10/24 00:35:58;;;;;;;0.20;0.20;;;16.20;99.90;;;;;;5024010;28;20553;-64
2022/10/24 00:38:25;;;;;;;0.20;0.20;;;16.20;99.90;;;;;;5040102;28;20302;-63
2022/10/24 00:40:52;;;;;;;0.30;0.30;;;16.20;99.90;;;;;;5038461;28;20801;-62
2022/10/24 00:43:24;;;;;;;0.30;0.30;;;16.10;99.90;;;;;;5012512;28;20198;-62
2022/10/24 00:45:57;;;;;;;0.20;0.20;;;16.10;99.90;;;;;;5039331;28;20237;-62
2022/10/24 00:48:23;;;;;;;0.20;0.20;;;16.00;99.90;;;;;;5029766;28;20203;-63
2022/10/24 00:50:55;;;;;;;0.20;0.20;;;16.10;99.90;;;;;;5020918;28;20838;-62
2022/10/24 00:53:24;;;;;;;0.20;0.20;;;16.00;99.90;;;;;;5035649;28;21242;-63
2022/10/24 00:55:53;;;;;;;0.30;0.30;;;16.10;99.90;;;;;;5022493;28;20219;-62
2022/10/24 00:58:24;;;;;;;0.30;0.30;;;16.00;99.90;;;;;;5029170;28;20208;-65
2022/10/24 01:00:52;;;;;;;0.20;0.20;;;16.20;99.90;;;;;;5022121;28;20192;-63
2022/10/24 01:03:19;;;;;;;0.30;0.30;;;16.20;99.90;;;;;;5040598;28;20188;-63
2022/10/24 01:06:05;;;;;;;0.20;0.20;;;16.20;99.90;;;;;;5022500;28;20211;-64
2022/10/24 01:08:39;;;;;;;0.30;0.30;;;16.10;99.90;;;;;;5028841;28;20188;-63
2022/10/24 01:11:35;;;;;;;0.20;0.20;;;16.30;99.90;;;;;;5029084;28;20246;-63
2022/10/24 01:14:15;;;;;;;0.30;0.30;;;16.20;99.90;;;;;;5020127;28;20279;-63
2022/10/24 01:16:57;;;;;;;0.20;0.20;;;16.10;99.90;;;;;;5021780;28;20219;-62
2022/10/24 01:19:44;;;;;;;0.20;0.20;;;16.20;99.90;;;;;;5028623;28;20231;-63
2022/10/24 01:22:20;;;;;;;0.30;0.30;;;16.20;99.90;;;;;;5037571;28;20275;-63
2022/10/24 01:25:16;;;;;;;0.30;0.30;;;16.40;99.90;;;;;;5038634;28;20195;-63
2022/10/24 01:27:55;;;;;;;0.20;0.20;;;16.20;99.90;;;;;;5039742;28;20196;-63
2022/10/24 01:30:23;;;;;;;0.30;0.30;;;16.20;99.90;;;;;;5021486;28;20196;-63
2022/10/24 01:33:14;;;;;;;0.30;0.30;;;16.30;99.90;;;;;;5036815;28;20238;-63
2022/10/24 01:35:59;;;;;;;0.30;0.30;;;16.30;99.90;;;;;;5035876;28;20215;-63
2022/10/24 01:38:55;;;;;;;0.20;0.20;;;16.20;99.90;;;;;;5040179;28;20229;-63
2022/10/24 01:41:26;;;;;;;0.20;0.20;;;16.20;99.90;;;;;;5019823;28;20199;-62
2022/10/24 01:44:19;;;;;;;0.20;0.20;;;16.30;97.20;;;;;;5021385;28;20290;-64
2022/10/24 01:47:11;;;;;;;0.20;0.20;;;16.40;68.80;;;;;;5020148;28;20295;-62
2022/10/24 01:49:40;;;;;;;0.20;0.20;;;16.50;22.20;;;;;;5040575;28;20249;-64
2022/10/24 01:52:12;;;;;;;0.20;0.20;;;16.60;1.00;;;;;;5021281;28;20301;-65
2022/10/24 01:54:41;;;;;;;0.20;0.20;;;16.50;1.00;;;;;;5029258;28;20198;-63
2022/10/24 01:57:09;;;;;;;0.20;0.20;;;16.50;1.00;;;;;;5038438;28;20683;-64
2022/10/24 01:59:39;;;;;;;0.32;0.32;;;16.30;15.90;;;;;;5037620;28;20257;-63
2022/10/24 02:02:12;;;;;;;0.30;0.30;;;16.20;1.00;;;;;;5038746;28;20184;-67
2022/10/24 02:04:45;;;;;;;0.30;0.30;;;16.40;1.00;;;;;;5036656;28;20196;-65
2022/10/24 02:07:14;;;;;;;0.30;0.30;;;16.40;1.00;;;;;;5039093;28;20275;-63
2022/10/24 02:09:43;;;;;;;0.30;0.30;;;16.40;1.00;;;;;;5039255;28;20211;-64
2022/10/24 02:12:14;;;;;;;0.20;0.20;;;16.60;1.00;;;;;;5029726;28;20645;-62
2022/10/24 02:14:47;;;;;;;0.30;0.30;;;16.50;1.00;;;;;;5021039;28;20270;-62
2022/10/24 02:17:15;;;;;;;0.20;0.20;;;16.50;1.00;;;;;;5038680;28;20933;-65
2022/10/24 02:19:43;;;;;;;0.28;0.28;;;16.50;1.00;;;;;;5024375;28;20235;-63
2022/10/24 02:22:24;;;;;;;0.30;0.30;;;16.30;1.00;;;;;;5027561;28;20242;-64
2022/10/24 02:25:16;;;;;;;0.30;0.30;;;16.20;1.00;;;;;;5027597;28;20715;-62
2022/10/24 02:28:01;;;;;;;0.30;0.30;;;16.20;1.00;;;;;;5036771;28;20199;-64
2022/10/24 02:30:33;;;;;;;0.20;0.20;;;16.40;1.00;;;;;;5022242;28;20204;-63
2022/10/24 02:33:00;;;;;;;0.30;0.30;;;16.30;1.00;;;;;;5010956;28;20749;-64
2022/10/24 02:35:34;;;;;;;0.25;0.25;;;16.20;1.00;;;;;;5038115;28;20226;-62
2022/10/24 02:38:32;;;;;;;0.30;0.30;;;16.10;12.80;;;;;;5035258;28;20198;-65
2022/10/24 02:41:03;;;;;;;0.20;0.20;;;16.10;23.90;;;;;;4986240;28;20288;-62
2022/10/24 02:43:31;;;;;;;0.30;0.30;;;16.20;3.50;;;;;;5018006;28;20658;-62
2022/10/24 02:45:58;;;;;;;0.30;0.30;;;16.20;3.20;;;;;;5017461;28;20201;-63
2022/10/24 02:48:33;;;;;;;0.30;0.30;;;16.20;16.60;;;;;;5014716;28;20205;-60
2022/10/24 02:51:02;;;;;;;0.40;0.40;;;16.00;47.10;;;;;;5000511;28;20202;-63
2022/10/24 02:53:29;;;;;;;0.30;0.30;;;16.20;14.30;;;;;;5000045;28;20189;-68
2022/10/24 02:55:56;;;;;;;0.20;0.20;;;16.20;20.00;;;;;;5018603;28;20189;-66
2022/10/24 02:58:23;;;;;;;10.25;3.53;;;16.20;20.50;;;;;;5017085;28;20207;-68
2022/10/24 03:00:49;;;;;;;8.35;2.60;;;16.30;8.50;;;;;;5020182;28;20632;-64
2022/10/24 03:03:16;;;;;;;9.68;3.13;;;16.30;8.20;;;;;;5014995;28;20197;-63
2022/10/24 03:05:44;;;;;;;7.13;2.70;;;16.30;2.70;;;;;;5018030;28;20585;-62
2022/10/24 03:08:11;;;;;;;17.27;3.17;;;16.40;1.00;;;;;;5005083;28;20189;-63
2022/10/24 03:10:39;;;;;;;11.07;2.53;;;16.40;1.00;;;;;;5006431;28;20192;-63
2022/10/24 03:13:06;;;;;;;9.25;2.80;;;16.40;1.00;;;;;;5017029;28;20213;-62
2022/10/24 03:15:33;;;;;;;5.40;2.33;;;16.20;1.00;;;;;;5017957;28;20238;-64
2022/10/24 03:18:03;;;;;;;8.73;2.22;;;16.50;1.00;;;;;;5000738;28;20203;-61
2022/10/24 03:20:30;;;;;;;5.95;2.53;;;16.60;1.00;;;;;;5002096;28;20233;-62
2022/10/24 03:22:57;;;;;;;11.90;2.67;;;16.60;1.00;;;;;;4999498;28;20220;-64
2022/10/24 03:25:24;;;;;;;5.47;2.00;;;16.70;1.00;;;;;;5017019;28;20194;-63
2022/10/24 03:27:51;;;;;;;5.10;2.30;;;16.70;1.00;;;;;;5000417;28;20228;-61
2022/10/24 03:30:18;;;;;;;8.73;2.20;;;16.80;1.00;;;;;;5000546;28;20204;-61
2022/10/24 03:32:45;;;;;;;9.50;2.58;;;16.90;1.00;;;;;;5015600;28;20742;-62
2022/10/24 03:35:13;;;;;;;7.85;2.45;;;16.90;1.00;;;;;;5017533;28;20200;-64
2022/10/24 03:37:41;;;;;;;7.78;2.42;;;17.00;1.00;;;;;;4982934;28;20685;-63
2022/10/24 03:40:09;;;;;;;5.75;2.03;;;17.00;1.00;;;;;;5021015;28;20224;-64
2022/10/24 03:42:37;;;;;;;4.10;2.00;;;17.00;1.00;;;;;;5036328;28;20195;-61
2022/10/24 03:45:04;;;;;;;11.52;2.60;;;17.00;1.00;;;;;;5020400;28;20190;-60
2022/10/24 03:47:31;;;;;;;4.55;2.03;;;17.10;1.00;;;;;;5026839;28;20196;-61
2022/10/24 03:49:58;;;;;;;5.78;2.15;;;17.00;1.00;;;;;;5033194;28;20223;-62
2022/10/24 03:52:25;;;;;;;6.68;2.10;;;17.20;1.00;;;;;;5015662;28;20722;-64
2022/10/24 03:54:52;;;;;;;7.25;1.98;;;17.00;1.00;;;;;;5034683;28;20714;-64
2022/10/24 03:57:20;;;;;;;9.43;2.53;;;17.00;1.00;;;;;;5023419;28;20246;-62
2022/10/24 03:59:51;;;;;;;5.72;2.38;;;17.00;1.00;;;;;;5040064;28;20207;-64
2022/10/24 04:02:18;;;;;;;10.48;2.33;;;17.10;1.00;;;;;;5024116;28;20196;-63
2022/10/24 04:04:46;;;;;;;7.38;2.10;;;17.20;1.00;;;;;;5029812;28;20209;-62
2022/10/24 04:07:13;;;;;;;8.48;2.08;;;17.20;1.00;;;;;;5032308;28;20234;-65
2022/10/24 04:09:39;;;;;;;7.65;2.17;;;17.30;1.00;;;;;;5041350;28;20223;-63
2022/10/24 04:12:06;;;;;;;12.23;2.90;;;17.10;1.00;;;;;;5024833;28;20306;-63
2022/10/24 04:14:33;;;;;;;6.55;2.90;;;16.80;1.00;;;;;;5023516;28;20836;-65
2022/10/24 04:17:01;;;;;;;9.95;2.53;;;16.80;1.00;;;;;;5041078;28;20697;-62
2022/10/24 04:19:28;;;;;;;5.65;2.33;;;16.60;1.00;;;;;;5030292;28;20219;-65
2022/10/24 04:21:55;;;;;;;8.27;2.90;;;16.60;1.00;;;;;;5026453;28;20269;-66
2022/10/24 04:24:21;;;;;;;5.95;2.28;;;16.60;1.00;;;;;;5031786;28;20198;-63
2022/10/24 04:26:48;;;;;;;8.50;2.83;;;16.90;1.00;;;;;;5041305;28;20223;-63
2022/10/24 04:29:15;;;;;;;10.75;2.80;;;16.80;1.00;;;;;;5045042;28;20204;-62
2022/10/24 04:31:42;;;;;;;11.27;2.60;;;16.90;1.00;;;;;;5031134;28;20192;-62
2022/10/24 04:34:09;;;;;;;5.22;2.30;;;16.90;1.00;;;;;;5025886;28;20774;-63
2022/10/24 04:36:37;;;;;;;9.18;3.25;;;16.80;1.00;;;;;;5040214;28;20208;-63
2022/10/24 04:39:04;;;;;;;9.13;2.58;;;16.60;1.00;;;;;;5025414;28;20254;-62
2022/10/24 04:41:31;;;;;;;8.50;2.63;;;16.60;1.00;;;;;;5040479;28;20250;-62
2022/10/24 04:43:58;;;;;;;10.52;2.53;;;16.50;1.00;;;;;;5015933;28;20207;-65
2022/10/24 04:46:25;;;;;;;12.80;2.78;;;16.50;1.00;;;;;;5040837;28;20200;-68
2022/10/24 04:48:52;;;;;;;10.80;2.58;;;16.60;1.00;;;;;;5034501;28;20325;-63
2022/10/24 04:51:19;;;;;;;7.95;2.53;;;16.70;1.00;;;;;;5040725;28;20296;-62
2022/10/24 04:53:49;;;;;;;5.60;2.08;;;16.60;1.00;;;;;;5040414;28;20223;-63
2022/10/24 04:56:17;;;;;;;10.23;3.28;;;16.70;1.00;;;;;;5042697;28;20827;-64
2022/10/24 04:58:44;;;;;;;15.85;2.40;;;16.60;1.00;;;;;;5040100;28;20227;-61
2022/10/24 05:01:17;;;;;;;11.88;2.20;;;16.40;1.00;;;;;;5025592;28;20215;-62
2022/10/24 05:03:45;;;;;;;7.18;2.67;;;16.50;1.00;;;;;;5041323;28;20226;-62
2022/10/24 05:06:12;;;;;;;7.18;2.13;;;16.50;1.00;;;;;;5039420;28;20199;-63
2022/10/24 05:08:39;;;;;;;7.55;2.50;;;16.40;1.00;;;;;;5023163;28;20574;-62
2022/10/24 05:11:06;;;;;;;7.22;2.00;;;16.40;1.00;;;;;;5019434;28;20667;-64
2022/10/24 05:13:33;;;;;;;13.23;3.10;;;16.50;1.00;;;;;;5011821;28;20663;-62
2022/10/24 05:16:03;;;;;;;5.65;2.40;;;16.40;1.00;;;;;;5002092;28;20234;-62
2022/10/24 05:18:30;;;;;;;9.57;2.72;;;16.10;1.00;;;;;;5027671;28;20262;-64
2022/10/24 05:20:58;;;;;;;12.70;2.70;;;16.40;1.00;;;;;;5036895;28;20203;-63
2022/10/24 05:23:26;;;;;;;8.93;2.75;;;16.30;1.00;;;;;;5040248;28;20574;-65
2022/10/24 05:25:53;;;;;;;5.57;2.60;;;16.40;1.00;;;;;;5028662;28;20192;-62
2022/10/24 05:28:20;;;;;;;7.35;2.58;;;16.30;1.00;;;;;;5021315;28;20200;-63
2022/10/24 05:30:47;;;;;;;6.53;2.50;;;16.20;1.00;;;;;;5022199;28;20199;-62
2022/10/24 05:33:14;;;;;;;7.88;2.33;;;16.30;1.00;;;;;;5021493;28;20231;-62
2022/10/24 05:35:41;;;;;;;8.32;2.22;;;16.50;1.00;;;;;;5037130;28;20212;-62
2022/10/24 05:38:08;;;;;;;10.00;2.10;;;16.40;1.00;;;;;;5027271;28;20231;-64
2022/10/24 05:40:35;;;;;;;9.35;2.20;;;16.30;1.00;;;;;;5039487;28;20231;-63
2022/10/24 05:43:02;;;;;;;7.68;2.38;;;16.30;1.00;;;;;;5029138;28;20200;-63
2022/10/24 05:45:29;;;;;;;7.68;2.35;;;16.30;1.00;;;;;;5021363;28;20226;-63
2022/10/24 05:47:56;;;;;;;4.22;2.08;;;16.30;1.00;;;;;;5028125;28;20245;-63
2022/10/24 05:50:25;;;;;;;8.70;2.28;;;16.40;1.00;;;;;;5038575;28;20277;-63
2022/10/24 05:52:53;;;;;;;6.88;2.10;;;16.50;1.00;;;;;;5011709;28;20242;-62
2022/10/24 05:55:20;;;;;;;17.65;2.30;;;16.40;1.00;;;;;;5021405;28;20234;-62
2022/10/24 05:57:47;;;;;;;3.90;2.10;;;16.40;1.00;;;;;;5022795;28;20223;-62
2022/10/24 06:00:16;;;;;;;5.38;2.33;;;16.40;1.00;;;;;;5028282;28;20313;-63
2022/10/24 06:02:43;;;;;;;6.93;2.33;;;16.20;1.00;;;;;;5022333;28;21294;-62
2022/10/24 06:05:11;;;;;;;7.68;2.13;;;16.30;1.00;;;;;;5017715;28;20231;-62
2022/10/24 06:07:40;;;;;;;4.63;1.73;;;16.30;1.00;;;;;;5036951;28;20216;-63
2022/10/24 06:10:09;;;;;;;5.68;2.28;;;16.40;1.00;;;;;;5027274;28;20631;-62
2022/10/24 06:12:36;;;;;;;5.43;1.85;;;16.50;1.00;;;;;;5029021;28;20659;-63
2022/10/24 06:15:07;;;;;;;6.78;1.90;;;16.50;1.00;;;;;;5037586;28;20210;-63
2022/10/24 06:17:34;;;;;;;4.72;1.70;;;16.50;1.00;;;;;;5022072;28;20286;-62
2022/10/24 06:20:01;;;;;;;5.78;1.70;;;16.50;1.00;;;;;;5019264;28;20231;-62
2022/10/24 06:22:28;;;;;;;7.25;1.80;;;16.70;1.00;;;;;;5026996;28;20191;-65
2022/10/24 06:24:55;;;;;;;6.75;2.17;;;16.60;1.00;;;;;;5036088;28;20196;-63
2022/10/24 06:27:22;;;;;;;8.27;1.95;;;16.70;1.00;;;;;;5020754;28;20227;-62
2022/10/24 06:29:50;;;;;;;5.07;2.00;;;16.60;1.00;;;;;;5022230;28;20196;-63
2022/10/24 06:32:17;;;;;;;7.00;1.50;;;16.50;1.00;;;;;;5018954;28;20270;-62
2022/10/24 06:34:44;;;;;;;4.22;1.92;;;16.60;1.00;;;;;;5037403;28;20279;-62
2022/10/24 06:37:11;;;;;;;6.65;1.77;;;16.60;1.00;;;;;;5006109;28;20282;-63
2022/10/24 06:39:38;;;;;;;9.68;1.80;;;16.80;1.00;;;;;;5035373;28;20683;-63
2022/10/24 06:42:05;;;;;;;6.03;1.70;;;16.80;1.00;;;;;;5038485;28;20192;-63
2022/10/24 06:44:32;;;;;;;5.38;1.90;;;16.80;1.00;;;;;;5039697;28;20227;-64
2022/10/24 06:46:59;;;;;;;5.40;1.60;;;16.90;1.00;;;;;;5037868;28;20281;-63
2022/10/24 06:49:26;;;;;;;7.93;1.67;;;17.00;1.00;;;;;;5038112;28;20556;-63
2022/10/24 06:51:53;;;;;;;3.95;1.60;;;17.00;1.00;;;;;;5035733;28;20531;-64
2022/10/24 06:54:20;;;;;;;5.68;1.85;;;17.10;1.00;;;;;;5020584;28;20235;-63
2022/10/24 06:56:51;;;;;;;7.40;1.95;;;17.10;1.00;;;;;;5037400;28;20188;-63
2022/10/24 06:59:18;;;;;;;5.10;1.70;;;17.30;1.00;;;;;;5035129;28;20327;-64
2022/10/24 07:01:45;;;;;;;6.05;1.60;;;17.20;1.00;;;;;;5032763;28;20199;-62
2022/10/24 07:04:13;;;;;;;6.85;1.98;;;17.20;1.00;;;;;;5015343;28;20190;-63
2022/10/24 07:06:40;;;;;;;4.75;1.60;;;17.20;1.00;;;;;;5033006;28;20736;-63
2022/10/24 07:09:10;;;;;;;6.03;2.00;;;17.30;1.00;;;;;;5033464;28;20286;-62
2022/10/24 07:11:41;;;;;;;9.80;2.00;;;17.20;1.00;;;;;;5022152;28;20216;-63
2022/10/24 07:14:09;;;;;;;6.32;1.58;;;17.30;1.00;;;;;;5035605;28;20196;-64
2022/10/24 07:16:36;;;;;;;3.88;1.55;;;17.40;1.00;;;;;;5030852;28;21250;-63
2022/10/24 07:19:04;;;;;;;8.13;1.80;;;17.40;1.00;;;;;;5019044;28;20296;-62
2022/10/24 07:21:32;;;;;;;9.30;2.05;;;17.40;1.00;;;;;;5033545;28;20203;-64
2022/10/24 07:24:00;;;;;;;4.20;1.40;;;17.50;1.00;;;;;;5018577;28;20274;-64
2022/10/24 07:26:28;;;;;;;9.38;1.92;;;17.60;1.00;;;;;;5018748;28;20196;-63
2022/10/24 07:29:00;;;;;;;7.43;2.15;;;17.60;1.00;;;;;;5009967;28;20326;-64
2022/10/24 07:31:33;;;;;;;8.98;1.60;;;17.70;1.00;;;;;;5017866;28;20213;-64
2022/10/24 07:34:03;;;;;;;7.40;1.95;;;17.70;1.00;;;;;;5031109;28;20311;-63
2022/10/24 07:36:33;;;;;;;5.97;2.00;;;17.90;1.00;;;;;;5034220;28;20243;-65
2022/10/24 07:39:03;;;;;;;8.20;2.10;;;18.10;1.00;;;;;;5007784;28;20644;-64
2022/10/24 07:41:32;;;;;;;6.10;2.00;;;18.00;1.00;;;;;;5020276;28;20213;-66
2022/10/24 07:44:01;;;;;;;5.70;1.90;;;18.20;1.00;;;;;;5019332;28;20627;-65
2022/10/24 07:46:28;;;;;;;7.68;1.98;;;18.30;1.00;;;;;;5021017;28;20200;-63
2022/10/24 07:48:55;;;;;;;5.65;1.70;;;18.30;1.00;;;;;;5037678;28;20609;-64
2022/10/24 07:51:26;;;;;;;5.30;1.70;;;18.30;1.00;;;;;;5039418;28;20195;-64
2022/10/24 07:53:53;;;;;;;8.02;1.80;;;18.30;1.00;;;;;;5037145;28;20203;-63
2022/10/24 07:56:21;;;;;;;6.55;1.67;;;18.30;1.00;;;;;;5026843;28;20203;-65
2022/10/24 07:58:48;;;;;;;8.05;1.95;;;18.50;1.00;;;;;;5018817;28;20239;-65
2022/10/24 08:01:18;;;;;;;6.93;1.73;;;18.50;1.00;;;;;;5027752;28;20772;-64
2022/10/24 08:03:45;;;;;;;4.68;1.48;;;18.60;1.00;;;;;;5019662;28;20199;-63
2022/10/24 08:06:17;;;;;;;7.60;1.85;;;18.80;1.00;;;;;;5038313;28;20197;-63
2022/10/24 08:08:44;;;;;;;3.72;1.67;;;19.00;1.00;;;;;;5039203;28;20271;-63
2022/10/24 08:11:17;;;;;;;7.40;1.75;;;19.10;1.00;;;;;;5020584;28;20196;-63
2022/10/24 08:13:44;;;;;;;5.18;1.67;;;19.30;1.00;;;;;;5027236;28;20188;-63
2022/10/24 08:16:13;;;;;;;9.18;1.77;;;19.20;1.00;;;;;;5038183;28;20449;-62
2022/10/24 08:18:40;;;;;;;6.00;1.67;;;19.30;1.00;;;;;;5037086;28;20644;-63
2022/10/24 08:21:10;;;;;;;8.40;1.90;;;19.40;1.00;;;;;;5011019;28;20220;-62
2022/10/24 08:23:40;;;;;;;3.60;1.83;;;19.30;1.00;;;;;;5019620;28;20207;-63
2022/10/24 08:26:08;;;;;;;3.67;1.42;;;19.40;1.00;;;;;;5040140;28;20218;-64
2022/10/24 08:28:35;;;;;;;5.65;1.73;;;19.60;1.00;;;;;;5039027;28;20191;-65
2022/10/24 08:31:06;;;;;;;5.95;1.77;;;19.40;1.00;;;;;;5020208;28;20693;-65
2022/10/24 08:33:33;;;;;;;4.18;1.77;;;19.30;1.00;;;;;;5037319;28;20299;-63
2022/10/24 08:36:03;;;;;;;9.23;1.80;;;19.20;1.00;;;;;;5025245;28;20738;-63
2022/10/24 08:38:31;;;;;;;4.20;1.63;;;19.10;1.00;;;;;;5024850;28;20614;-63
2022/10/24 08:40:58;;;;;;;12.02;1.70;;;19.00;1.00;;;;;;5018901;28;20239;-65
2022/10/24 08:43:26;;;;;;;5.57;1.92;;;19.20;1.00;;;;;;5023585;28;20658;-65
2022/10/24 08:46:14;;;;;;;7.22;1.77;;;19.60;1.00;;;;;;5003247;28;20195;-64
2022/10/24 08:49:01;;;;;;;3.55;1.50;;;20.40;1.00;;;;;;5030003;28;20211;-65
2022/10/24 08:51:42;;;;;;;5.45;1.70;;;21.90;1.00;;;;;;5040035;28;20262;-64
2022/10/24 08:54:17;;;;;;;4.00;1.50;;;21.70;1.00;;;;;;5038214;28;20220;-64
2022/10/24 08:56:44;;;;;;;5.03;1.88;;;20.10;1.00;;;;;;5031439;28;20200;-63
2022/10/24 08:59:12;;;;;;;7.25;1.70;;;19.60;1.00;;;;;;5039266;28;20606;-62
2022/10/24 09:02:01;;;;;;;5.25;1.52;;;19.10;1.00;;;;;;5028448;28;20287;-63
2022/10/24 09:04:40;;;;;;;5.13;1.50;;;19.10;1.00;;;;;;5040586;28;20180;-63
2022/10/24 09:07:18;;;;;;;8.73;1.77;;;19.00;1.00;;;;;;5030331;28;20217;-64
2022/10/24 09:09:48;;;;;;;5.78;1.52;;;18.90;1.00;;;;;;5027877;28;20200;-64
2022/10/24 09:12:18;;;;;;;5.22;1.90;;;18.90;1.00;;;;;;5038191;28;20205;-66
2022/10/24 09:14:50;;;;;;;3.58;1.67;;;18.70;1.00;;;;;;5021973;28;20201;-62
2022/10/24 09:17:22;;;;;;;7.47;1.65;;;18.60;1.00;;;;;;5024104;28;20195;-62
2022/10/24 09:19:49;;;;;;;6.18;2.03;;;18.50;1.00;;;;;;5038659;28;20196;-64
2022/10/24 09:22:16;;;;;;;9.23;1.50;;;18.40;1.00;;;;;;5038016;28;20795;-63
2022/10/24 09:24:56;;;;;;;7.55;1.88;;;18.50;1.00;;;;;;5016993;28;20230;-63
2022/10/24 09:27:28;;;;;;;7.18;1.73;;;18.40;1.00;;;;;;5038100;28;20262;-64
2022/10/24 09:29:57;;;;;;;9.68;2.00;;;18.40;1.00;;;;;;5038848;28;20647;-63
2022/10/24 09:32:31;;;;;;;5.80;1.80;;;18.40;1.00;;;;;;5038301;28;20722;-64
2022/10/24 09:35:02;;;;;;;9.07;1.65;;;18.30;1.00;;;;;;5038021;28;20735;-63
2022/10/24 09:37:31;;;;;;;9.52;1.67;;;18.20;1.00;;;;;;5039821;28;20234;-63
2022/10/24 09:40:17;;;;;;;4.35;1.63;;;18.20;1.00;;;;;;5038892;28;20972;-65
2022/10/24 09:43:21;;;;;;;6.15;1.77;;;18.10;1.00;;;;;;5022430;28;20218;-63
2022/10/24 09:45:50;;;;;;;5.03;1.52;;;18.10;1.00;;;;;;5026833;28;20241;-64
2022/10/24 09:48:49;;;;;;;5.00;1.80;;;18.10;1.00;;;;;;5039530;28;20239;-68
2022/10/24 09:51:23;;;;;;;5.13;1.90;;;18.10;1.00;;;;;;4977800;28;20216;-67
2022/10/24 09:54:22;;;;;;;5.85;1.75;;;18.00;1.00;;;;;;5019773;28;20216;-69
2022/10/24 09:57:11;;;;;;;6.63;1.98;;;18.10;1.00;;;;;;5039404;28;20208;-70
2022/10/24 09:59:43;;;;;;;6.47;1.83;;;18.10;1.00;;;;;;5009272;28;20658;-69
2022/10/24 10:02:13;;;;;;;8.98;1.80;;;18.00;1.00;;;;;;5021946;28;20295;-70
2022/10/24 10:04:40;;;;;;;9.25;1.67;;;18.10;1.00;;;;;;5023502;28;20192;-71
2022/10/24 10:07:14;;;;;;;6.97;1.70;;;18.10;1.00;;;;;;5027614;28;20184;-70
2022/10/24 10:09:54;;;;;;;6.97;1.83;;;18.10;1.00;;;;;;5042066;28;20279;-71
2022/10/24 10:12:33;;;;;;;8.48;1.65;;;18.10;1.00;;;;;;5038451;28;20195;-64
2022/10/24 10:15:16;;;;;;;6.38;2.00;;;18.10;1.00;;;;;;5038108;28;20203;-68
2022/10/24 10:17:53;;;;;;;7.97;1.83;;;18.00;1.00;;;;;;5021549;28;20702;-69
2022/10/24 10:20:39;;;;;;;8.02;1.90;;;18.00;1.00;;;;;;5021321;28;20192;-68
2022/10/24 10:23:31;;;;;;;7.60;1.88;;;18.10;1.00;;;;;;5037173;28;20207;-70
2022/10/24 10:26:03;;;;;;;6.70;1.80;;;18.20;1.00;;;;;;5028737;28;20192;-69
2022/10/24 10:28:35;;;;;;;5.78;1.80;;;18.30;1.00;;;;;;5022146;28;20200;-69
2022/10/24 10:31:03;;;;;;;6.53;1.60;;;18.30;1.00;;;;;;5038577;28;20274;-70
2022/10/24 10:33:56;;;;;;;3.97;1.80;;;18.50;1.00;;;;;;5040434;28;20685;-69
2022/10/24 10:36:31;;;;;;;9.23;2.00;;;18.60;1.00;;;;;;5017676;28;22248;-70
2022/10/24 10:39:30;;;;;;;9.40;2.10;;;18.70;1.00;;;;;;5025402;28;20701;-69
2022/10/24 10:42:08;;;;;;;6.15;1.52;;;18.60;1.00;;;;;;5038880;28;20890;-66
2022/10/24 10:44:59;;;;;;;8.55;2.13;;;18.70;1.00;;;;;;5039734;28;20191;-66
2022/10/24 10:47:42;;;;;;;3.97;1.60;;;18.80;1.00;;;;;;5021023;28;20295;-67
2022/10/24 10:50:24;;;;;;;3.17;1.48;;;18.70;1.00;;;;;;5038113;28;20568;-67
2022/10/24 10:52:53;;;;;;;8.38;1.85;;;18.60;1.00;;;;;;5039690;28;20563;-67
2022/10/24 10:55:29;;;;;;;10.65;1.90;;;18.50;1.00;;;;;;5019855;28;20295;-65
2022/10/24 10:58:43;;;;;;;7.82;1.85;;;18.50;1.00;;;;;;5012380;28;20560;-66
2022/10/24 11:01:22;;;;;;;5.18;1.92;;;18.50;1.00;;;;;;5028310;28;20228;-66
2022/10/24 11:04:15;;;;;;;6.57;1.80;;;18.50;1.00;;;;;;5027195;28;20290;-67
2022/10/24 11:07:07;;;;;;;10.10;1.98;;;18.70;1.00;;;;;;5020802;28;20187;-67
2022/10/24 11:09:48;;;;;;;4.68;1.35;;;18.80;1.00;;;;;;5037490;28;20222;-66
2022/10/24 11:12:21;;;;;;;5.72;1.70;;;18.80;1.00;;;;;;5038617;28;20202;-66
2022/10/24 11:14:50;;;;;;;4.75;2.00;;;18.60;1.00;;;;;;5021421;28;20620;-66
2022/10/24 11:17:22;;;;;;;5.70;2.05;;;18.60;1.00;;;;;;5037306;28;20222;-66
2022/10/24 11:20:03;;;;;;;8.52;1.60;;;18.60;1.00;;;;;;5024706;28;20298;-65
2022/10/24 11:22:40;;;;;;;7.15;1.80;;;18.80;1.00;;;;;;5022091;28;20216;-68
2022/10/24 11:25:39;;;;;;;3.47;1.60;;;18.90;1.00;;;;;;5038358;28;20203;-67
2022/10/24 11:28:18;;;;;;;8.02;2.03;;;18.80;1.00;;;;;;4993751;28;20671;-67
2022/10/24 11:30:59;;;;;;;5.75;1.80;;;18.70;1.00;;;;;;5033102;28;20184;-68
2022/10/24 11:33:38;;;;;;;8.95;1.90;;;18.70;1.00;;;;;;5008119;28;20300;-68
2022/10/24 11:36:15;;;;;;;7.65;1.77;;;19.10;1.00;;;;;;5008670;28;20219;-68
2022/10/24 11:38:57;;;;;;;7.25;1.60;;;19.20;1.00;;;;;;5034446;28;20566;-68
2022/10/24 11:41:33;;;;;;;9.50;1.98;;;19.00;1.00;;;;;;5035633;28;20215;-68
2022/10/24 11:44:17;;;;;;;3.83;1.73;;;18.80;1.00;;;;;;5034237;28;20251;-68
2022/10/24 11:46:52;;;;;;;7.70;2.17;;;18.80;1.00;;;;;;5037290;28;21069;-67
2022/10/24 11:49:30;;;;;;;7.53;1.83;;;18.90;1.00;;;;;;5038337;28;20186;-67
2022/10/24 11:52:03;;;;;;;6.40;1.70;;;18.80;1.00;;;;;;5035088;28;20289;-66
2022/10/24 11:54:38;;;;;;;11.40;2.65;;;18.70;1.00;;;;;;5018618;28;20195;-67
2022/10/24 11:57:12;;;;;;;7.35;2.05;;;18.50;1.00;;;;;;5033916;28;20941;-67
2022/10/24 11:59:44;;;;;;;4.70;1.77;;;18.50;1.00;;;;;;5002199;28;20644;-67
2022/10/24 12:02:28;;;;;;;5.88;1.90;;;18.40;1.00;;;;;;5016627;28;20674;-66
2022/10/24 12:05:12;;;;;;;5.75;1.92;;;18.30;1.00;;;;;;5031559;28;20191;-66
2022/10/24 12:07:52;;;;;;;5.53;1.85;;;18.20;1.00;;;;;;5030776;28;20206;-66
2022/10/24 12:11:10;;;;;;;9.50;1.70;;;18.20;1.00;;;;;;5011059;28;20228;-66
2022/10/24 12:13:58;;;;;;;6.18;1.85;;;18.30;1.00;;;;;;4999436;28;20614;-66
2022/10/24 12:16:50;;;;;;;7.32;1.67;;;18.40;1.00;;;;;;5006158;28;21216;-67
2022/10/24 12:19:19;;;;;;;5.28;1.40;;;18.40;1.00;;;;;;5035959;28;20271;-67
2022/10/24 12:21:55;;;;;;;7.47;2.13;;;18.40;1.00;;;;;;5023233;28;20287;-68
2022/10/24 12:24:34;;;;;;;6.07;1.52;;;18.30;1.00;;;;;;5023180;28;20666;-66
2022/10/24 12:27:18;;;;;;;5.72;2.25;;;18.40;1.00;;;;;;5023268;28;20252;-66
2022/10/24 12:29:59;;;;;;;4.95;1.90;;;18.40;1.00;;;;;;5025595;28;20196;-71
2022/10/24 12:32:48;;;;;;;8.93;2.63;;;18.40;1.00;;;;;;5041936;28;20201;-70
2022/10/24 12:35:32;;;;;;;7.97;2.80;;;18.40;1.00;;;;;;5041894;28;20218;-70
2022/10/24 12:38:01;;;;;;;7.00;1.63;;;18.30;1.00;;;;;;5044738;28;20200;-70
2022/10/24 12:40:50;;;;;;;8.20;2.00;;;18.30;1.00;;;;;;5031825;28;20232;-69
2022/10/24 12:43:34;;;;;;;7.95;1.90;;;18.20;1.00;;;;;;5034494;28;20218;-71
2022/10/24 12:46:13;;;;;;;9.25;2.15;;;18.30;1.00;;;;;;5032141;28;20192;-70
2022/10/24 12:48:56;;;;;;;4.70;1.77;;;18.40;1.00;;;;;;5041229;28;20201;-70
2022/10/24 12:51:35;;;;;;;5.18;1.70;;;18.50;1.00;;;;;;5042096;28;20198;-70
2022/10/24 12:54:39;;;;;;;6.88;1.90;;;18.60;1.00;;;;;;5042448;28;21673;-70
2022/10/24 12:57:07;;;;;;;6.65;1.70;;;18.80;1.00;;;;;;5035957;28;20671;-68
2022/10/24 12:59:46;;;;;;;10.48;2.50;;;18.70;1.00;;;;;;5031667;28;20379;-70
2022/10/24 13:02:16;;;;;;;7.97;2.20;;;18.70;1.00;;;;;;5024759;28;20219;-70
2022/10/24 13:05:02;;;;;;;4.65;1.50;;;18.70;1.00;;;;;;5044775;28;20706;-70
2022/10/24 13:07:53;;;;;;;5.85;1.73;;;18.70;1.00;;;;;;5042348;28;20184;-69
2022/10/24 13:10:57;;;;;;;8.85;1.92;;;18.50;1.00;;;;;;5040036;28;20207;-68
2022/10/24 13:13:38;;;;;;;9.38;1.95;;;18.50;1.00;;;;;;5009604;28;21044;-69
2022/10/24 13:16:17;;;;;;;9.60;2.00;;;18.40;1.00;;;;;;5043651;28;20216;-68
2022/10/24 13:19:20;;;;;;;6.68;2.00;;;18.10;1.00;;;;;;5028845;28;20195;-70
2022/10/24 13:21:53;;;;;;;8.52;2.03;;;18.00;1.00;;;;;;4988279;28;20322;-70
2022/10/24 13:24:33;;;;;;;7.38;1.73;;;18.10;1.00;;;;;;5007903;28;20204;-70
2022/10/24 13:27:07;;;;;;;5.97;1.73;;;18.00;1.00;;;;;;5032579;28;20192;-70